CheckWX is a tool to help pilots better visualize weather data.  It is not intended as a substitute for an official pre-flight weather briefing.

19:45:09 UTC

KCAK TAF
Akron Canton Regional Airport
Akron, Ohio, USA
KCAK 102341Z 1100/1124 22012KT P6SM VCSH SCT040 BKN100 FM110500 25010KT P6SM -SHRA VCTS BKN020CB TEMPO 1106/1110 5SM -SHRA BKN009 FM111100 28012G20KT P6SM BKN010 FM111800 28014G22KT P6SM BKN035

Jul-11@
00:00 UTC

Jul-11 @ 00:00 UTC

Jul-11@
05:00 UTC

Jul-11 @ 05:00 UTC

TAF KCAK 102341Z 1100/1124 22012KT P6SM VCSH SCT040 BKN100

Expired

Wind
  • 220° at 12 KTS
Conditions
Area Showers
Cloud Levels
  • Scattered at 4,000' AGL
  • Broken at 10,000' AGL

Jul-11@
05:00 UTC

Jul-11 @ 05:00 UTC

Jul-11@
11:00 UTC

Jul-11 @ 11:00 UTC

FM110500 25010KT P6SM -SHRA VCTS BKN020CB

Expired

Wind
  • 250° at 10 KTS
Conditions
Light Showers, Rain, Area Thunderstorm
Cloud Levels
  • Broken at 2,000' AGL

Jul-11@
06:00 UTC

Jul-11 @ 06:00 UTC

Jul-11@
10:00 UTC

Jul-11 @ 10:00 UTC

TEMPO 1106/1110 5SM -SHRA BKN009

Expired

Conditions
Light Showers, Rain
Cloud Levels
  • Broken at 900' AGL

Jul-11@
11:00 UTC

Jul-11 @ 11:00 UTC

Jul-11@
18:00 UTC

Jul-11 @ 18:00 UTC

FM111100 28012G20KT P6SM BKN010

Expired

Wind
  • 280° at 12 KTS
  • {Gusting to 20 KTS
Cloud Levels
  • Broken at 1,000' AGL

Jul-11@
18:00 UTC

Jul-11 @ 18:00 UTC

Jul-12@
00:00 UTC

Jul-12 @ 00:00 UTC

FM111800 28014G22KT P6SM BKN035

From

From Standard forecast or significant change

Wind
  • 280° at 14 KTS
  • {Gusting to 22 KTS
Cloud Levels
  • Broken at 3,500' AGL